Time;durP1;ratioP1;P1;durP2;ratioP2;P2;SDS_P1;SDS_P2;PMS_P1;PMS_P2;Temp;Humidity;BMP_temperature;BMP_pressure;BME280_temperature;BME280_humidity;BME280_pressure;Samples;Min_cycle;Max_cycle;Signal;HPM_P1;HPM_P2
2023/03/30 00:01:29;;;;;;;17.48;9.07;;;7.50;99.90;;;;;;4991867;28;20038;-58
2023/03/30 00:03:57;;;;;;;19.48;10.02;;;7.50;99.90;;;;;;4991801;28;20092;-55
2023/03/30 00:06:23;;;;;;;21.73;10.38;;;7.50;99.90;;;;;;4991742;28;20399;-55
2023/03/30 00:08:57;;;;;;;19.63;9.80;;;7.50;99.90;;;;;;4991649;28;20034;-58
2023/03/30 00:11:23;;;;;;;;;;;7.50;99.90;;;;;;4992222;28;20030;-54
2023/03/30 00:13:50;;;;;;;12.70;7.40;;;7.60;99.90;;;;;;4991757;28;19932;-53
2023/03/30 00:16:16;;;;;;;7.55;3.60;;;7.60;99.90;;;;;;4991659;28;20034;-55
2023/03/30 00:18:46;;;;;;;6.80;3.65;;;7.70;99.90;;;;;;4993787;28;20093;-57
2023/03/30 00:21:12;;;;;;;15.00;4.22;;;7.80;99.90;;;;;;4995129;28;20069;-57
2023/03/30 00:23:38;;;;;;;8.73;4.82;;;7.80;99.90;;;;;;4995051;28;20026;-57
2023/03/30 00:26:04;;;;;;;14.82;4.90;;;7.80;99.90;;;;;;4993628;28;20034;-56
2023/03/30 00:28:30;;;;;;;11.32;6.40;;;7.80;99.90;;;;;;4994871;28;20067;-58
2023/03/30 00:30:56;;;;;;;27.83;6.03;;;7.80;99.90;;;;;;4994916;28;20030;-58
2023/03/30 00:33:22;;;;;;;10.93;5.15;;;7.70;99.90;;;;;;4993744;28;20026;-55
2023/03/30 00:35:56;;;;;;;7.43;5.07;;;7.70;99.90;;;;;;4994929;28;20121;-54
2023/03/30 00:38:22;;;;;;;8.70;5.93;;;7.70;99.90;;;;;;4994832;28;20057;-55
2023/03/30 00:40:53;;;;;;;9.63;5.28;;;7.60;99.90;;;;;;4994715;28;20076;-55
2023/03/30 00:43:19;;;;;;;17.33;6.50;;;7.50;99.90;;;;;;4995155;28;20037;-55
2023/03/30 00:45:45;;;;;;;9.43;6.40;;;7.50;99.90;;;;;;4994587;28;20033;-57
2023/03/30 00:48:14;;;;;;;13.45;4.90;;;7.50;99.90;;;;;;4994627;28;20031;-58
2023/03/30 00:50:53;;;;;;;12.45;5.07;;;7.50;99.90;;;;;;4994541;28;20010;-53
2023/03/30 00:53:26;;;;;;;8.43;4.90;;;7.50;99.90;;;;;;4994682;28;20026;-57
2023/03/30 00:55:53;;;;;;;9.87;5.17;;;7.50;99.90;;;;;;4993030;28;20069;-54
2023/03/30 00:58:21;;;;;;;11.65;5.85;;;7.50;99.90;;;;;;4994469;28;20050;-56
2023/03/30 01:00:47;;;;;;;17.05;6.22;;;7.50;99.90;;;;;;4994315;28;20026;-58
2023/03/30 01:03:30;;;;;;;16.63;7.75;;;7.50;99.90;;;;;;4994421;28;20109;-57
2023/03/30 01:05:58;;;;;;;9.18;5.13;;;7.40;99.90;;;;;;4994036;28;20023;-54
2023/03/30 01:08:31;;;;;;;8.68;5.45;;;7.50;99.90;;;;;;4994322;28;20041;-58
2023/03/30 01:11:00;;;;;;;15.32;5.63;;;7.50;99.90;;;;;;4993992;28;20040;-55
2023/03/30 01:13:31;;;;;;;12.60;5.45;;;7.50;99.90;;;;;;4994063;28;20037;-55
2023/03/30 01:16:05;;;;;;;16.02;5.68;;;7.50;99.90;;;;;;4993749;28;20088;-57
2023/03/30 01:18:53;;;;;;;9.00;4.97;;;7.50;99.90;;;;;;4993925;28;20037;-58
2023/03/30 01:22:00;;;;;;;7.50;4.28;;;7.40;99.90;;;;;;4983006;28;20545;-53
2023/03/30 01:24:41;;;;;;;12.75;5.53;;;7.30;99.90;;;;;;4993919;28;20109;-57
2023/03/30 01:27:39;;;;;;;12.50;5.28;;;7.30;99.90;;;;;;4993719;28;20038;-56
2023/03/30 01:30:42;;;;;;;10.32;5.57;;;7.30;99.90;;;;;;4992767;28;20034;-53
2023/03/30 01:33:22;;;;;;;11.38;5.78;;;7.40;99.90;;;;;;4993750;28;20382;-54
2023/03/30 01:36:19;;;;;;;11.10;5.22;;;7.40;99.90;;;;;;4993428;28;20057;-56
2023/03/30 01:39:11;;;;;;;10.18;5.18;;;7.30;99.90;;;;;;4993479;28;20033;-55
2023/03/30 01:42:01;;;;;;;11.93;5.53;;;7.40;99.90;;;;;;4993532;28;20068;-56
2023/03/30 01:44:35;;;;;;;11.55;5.38;;;7.40;99.90;;;;;;4993349;28;20037;-57
2023/03/30 01:47:38;;;;;;;11.75;5.90;;;7.40;99.90;;;;;;4991916;28;20053;-58
2023/03/30 01:50:04;;;;;;;9.68;5.60;;;7.30;99.90;;;;;;4993265;28;20038;-55
2023/03/30 01:52:39;;;;;;;17.52;5.47;;;7.30;99.90;;;;;;4993519;28;20057;-57
2023/03/30 01:55:34;;;;;;;10.27;5.30;;;7.40;99.90;;;;;;4993392;28;20027;-52
2023/03/30 01:58:33;;;;;;;15.60;6.00;;;7.40;99.90;;;;;;4985255;28;20093;-57
2023/03/30 02:01:01;;;;;;;15.02;5.65;;;7.40;99.90;;;;;;4991844;28;20157;-53
2023/03/30 02:03:30;;;;;;;10.63;6.15;;;7.40;99.90;;;;;;4993335;28;20023;-55
2023/03/30 02:06:02;;;;;;;8.73;4.70;;;7.40;99.90;;;;;;4993068;28;20041;-54
2023/03/30 02:08:31;;;;;;;12.02;5.97;;;7.40;99.90;;;;;;4993307;28;20018;-55
2023/03/30 02:10:58;;;;;;;11.85;5.38;;;7.40;99.90;;;;;;4992989;28;20019;-55
2023/03/30 02:13:27;;;;;;;17.42;4.50;;;7.50;99.90;;;;;;4993180;28;20022;-56
2023/03/30 02:16:10;;;;;;;15.18;5.55;;;7.50;99.90;;;;;;4992918;28;20121;-53
2023/03/30 02:18:37;;;;;;;10.90;4.32;;;7.50;99.90;;;;;;4992847;28;20025;-58
2023/03/30 02:21:04;;;;;;;13.02;4.57;;;7.50;99.90;;;;;;4992815;28;20035;-58
2023/03/30 02:23:34;;;;;;;12.73;4.35;;;7.50;99.90;;;;;;4992934;28;20052;-57
2023/03/30 02:26:00;;;;;;;15.23;5.15;;;7.50;99.90;;;;;;4992746;28;20036;-55
2023/03/30 02:28:25;;;;;;;13.65;4.78;;;7.50;99.90;;;;;;4992751;28;20042;-56
2023/03/30 02:30:51;;;;;;;12.95;5.10;;;7.50;99.90;;;;;;4992614;28;20034;-57
2023/03/30 02:33:43;;;;;;;15.55;4.15;;;7.50;99.90;;;;;;4992779;28;20041;-54
2023/03/30 02:36:09;;;;;;;8.45;3.90;;;7.50;99.90;;;;;;4982120;28;20089;-58
2023/03/30 02:38:53;;;;;;;14.23;4.35;;;7.50;99.90;;;;;;4992854;28;20470;-58
2023/03/30 02:41:37;;;;;;;10.05;3.80;;;7.40;99.90;;;;;;4992337;28;20101;-55
2023/03/30 02:44:22;;;;;;;10.27;4.07;;;7.50;99.90;;;;;;4992484;28;20032;-55
2023/03/30 02:47:04;;;;;;;13.07;4.68;;;7.50;99.90;;;;;;4992411;28;20038;-57
2023/03/30 02:49:38;;;;;;;14.35;3.88;;;7.50;99.90;;;;;;4992562;28;20027;-55
2023/03/30 02:52:25;;;;;;;21.52;5.20;;;7.50;99.90;;;;;;4992288;28;20084;-59
2023/03/30 02:55:12;;;;;;;7.93;4.28;;;7.60;99.90;;;;;;4992487;28;20030;-58
2023/03/30 02:58:01;;;;;;;13.65;5.72;;;7.50;99.90;;;;;;4992492;28;20035;-55
2023/03/30 03:00:54;;;;;;;13.10;4.72;;;7.50;99.90;;;;;;4992333;28;20026;-54
2023/03/30 03:03:24;;;;;;;11.90;4.65;;;7.50;99.90;;;;;;4991716;28;20047;-54
2023/03/30 03:05:53;;;;;;;12.95;4.20;;;7.60;99.90;;;;;;4991784;28;20027;-55
2023/03/30 03:08:23;;;;;;;7.35;4.60;;;7.60;99.90;;;;;;4991926;28;20445;-55
2023/03/30 03:10:50;;;;;;;10.10;3.58;;;7.60;99.90;;;;;;4991940;28;20026;-54
2023/03/30 03:13:17;;;;;;;8.82;3.50;;;7.70;99.90;;;;;;4992245;28;20061;-53
2023/03/30 03:15:45;;;;;;;12.80;4.40;;;7.70;99.90;;;;;;4992171;28;20061;-57
2023/03/30 03:18:11;;;;;;;14.02;4.20;;;7.70;99.90;;;;;;4992056;28;20031;-57
2023/03/30 03:20:38;;;;;;;13.82;3.90;;;7.70;99.90;;;;;;4992201;28;20351;-54
2023/03/30 03:23:04;;;;;;;10.13;3.53;;;7.80;99.90;;;;;;4992002;28;20110;-58
2023/03/30 03:25:30;;;;;;;15.18;4.03;;;7.80;99.90;;;;;;4992096;28;20038;-58
2023/03/30 03:27:56;;;;;;;13.38;5.82;;;7.80;99.90;;;;;;4991807;28;20363;-56
2023/03/30 03:30:22;;;;;;;9.27;5.47;;;7.80;99.90;;;;;;4992205;28;20031;-59
2023/03/30 03:32:48;;;;;;;16.75;6.65;;;7.80;99.90;;;;;;4991863;28;20023;-58
2023/03/30 03:35:14;;;;;;;12.32;6.70;;;7.80;99.90;;;;;;4992142;28;20030;-53
2023/03/30 03:37:40;;;;;;;12.00;7.00;;;7.90;99.90;;;;;;4991643;28;20501;-54
2023/03/30 03:40:07;;;;;;;18.05;7.47;;;7.90;99.90;;;;;;4991671;28;20031;-58
2023/03/30 03:42:32;;;;;;;23.40;9.65;;;7.90;99.90;;;;;;4991788;28;20031;-57
2023/03/30 03:44:58;;;;;;;15.55;8.90;;;7.90;99.90;;;;;;4991709;28;20022;-56
2023/03/30 03:47:24;;;;;;;15.60;8.05;;;7.90;99.90;;;;;;4991502;28;20034;-55
2023/03/30 03:49:50;;;;;;;22.23;8.50;;;7.90;99.90;;;;;;4991671;28;20053;-55
2023/03/30 03:52:16;;;;;;;19.70;11.73;;;7.90;99.90;;;;;;4991826;28;20361;-57
2023/03/30 03:54:47;;;;;;;18.17;12.95;;;7.80;99.90;;;;;;4995329;28;20030;-55
2023/03/30 03:57:13;;;;;;;17.60;11.43;;;7.70;99.90;;;;;;4994215;28;20031;-54
2023/03/30 03:59:38;;;;;;;22.58;13.38;;;7.70;99.90;;;;;;4995435;28;20085;-55
2023/03/30 04:02:04;;;;;;;23.80;12.65;;;7.70;99.90;;;;;;4995508;28;20034;-56
2023/03/30 04:04:30;;;;;;;22.20;11.68;;;7.60;99.90;;;;;;4995602;28;20363;-57
2023/03/30 04:06:56;;;;;;;16.92;10.77;;;7.50;99.90;;;;;;4995229;28;20041;-56
2023/03/30 04:09:22;;;;;;;29.08;14.00;;;7.50;99.90;;;;;;4995473;28;20385;-53
2023/03/30 04:11:48;;;;;;;33.25;13.52;;;7.60;99.90;;;;;;4995285;28;20019;-56
2023/03/30 04:14:14;;;;;;;17.17;11.75;;;7.60;99.90;;;;;;4993966;28;20062;-52
2023/03/30 04:16:39;;;;;;;26.23;11.07;;;7.50;99.90;;;;;;4994779;28;20026;-58
2023/03/30 04:19:07;;;;;;;17.30;11.13;;;7.50;99.90;;;;;;4995029;28;20030;-58
2023/03/30 04:21:34;;;;;;;22.92;12.25;;;7.50;99.90;;;;;;4993893;28;20031;-54
2023/03/30 04:24:00;;;;;;;17.48;12.57;;;7.50;99.90;;;;;;4994803;28;20022;-55
2023/03/30 04:26:27;;;;;;;18.23;11.95;;;7.40;99.90;;;;;;4994948;28;20113;-59
2023/03/30 04:28:56;;;;;;;18.80;10.52;;;7.30;99.90;;;;;;4993340;28;20053;-55
2023/03/30 04:31:22;;;;;;;28.85;11.77;;;7.30;99.90;;;;;;4994912;28;20484;-58
2023/03/30 04:33:52;;;;;;;24.77;12.45;;;7.20;99.90;;;;;;4994253;28;20030;-56
2023/03/30 04:36:19;;;;;;;15.60;12.05;;;7.20;99.90;;;;;;4994150;28;20042;-58
2023/03/30 04:38:56;;;;;;;18.15;12.05;;;7.10;99.90;;;;;;4977114;28;20418;-57
2023/03/30 04:41:25;;;;;;;14.77;10.30;;;7.00;99.90;;;;;;4994624;28;20022;-58
2023/03/30 04:43:51;;;;;;;19.75;11.13;;;6.90;99.90;;;;;;4992902;28;20018;-55
2023/03/30 04:46:17;;;;;;;16.95;10.70;;;6.90;99.90;;;;;;4994587;28;20454;-58
2023/03/30 04:48:42;;;;;;;22.67;10.10;;;6.80;99.90;;;;;;4994594;28;20030;-56
2023/03/30 04:51:08;;;;;;;20.25;11.48;;;6.80;99.90;;;;;;4994299;28;20026;-58
2023/03/30 04:53:34;;;;;;;17.02;11.18;;;6.80;99.90;;;;;;4994478;28;20033;-55
2023/03/30 04:55:59;;;;;;;17.08;11.20;;;6.80;99.90;;;;;;4993059;28;20074;-57
2023/03/30 04:58:25;;;;;;;15.95;11.68;;;6.70;99.90;;;;;;4994402;28;20018;-56
2023/03/30 05:00:50;;;;;;;13.02;9.60;;;6.70;99.90;;;;;;4994268;28;20033;-55
2023/03/30 05:03:16;;;;;;;15.27;9.05;;;6.60;99.90;;;;;;4993998;28;20022;-53
2023/03/30 05:05:42;;;;;;;15.45;9.80;;;6.50;99.90;;;;;;4994397;28;20026;-52
2023/03/30 05:08:08;;;;;;;17.08;9.95;;;6.40;99.90;;;;;;4993990;28;20045;-57
2023/03/30 05:10:33;;;;;;;13.63;8.60;;;6.30;99.90;;;;;;4994258;28;20088;-51
2023/03/30 05:12:59;;;;;;;14.50;8.77;;;6.30;99.90;;;;;;4993739;28;20030;-57
2023/03/30 05:15:26;;;;;;;17.27;9.55;;;6.40;99.90;;;;;;4993877;28;20018;-54
2023/03/30 05:17:52;;;;;;;20.63;14.20;;;6.50;99.90;;;;;;4993883;28;20034;-56
2023/03/30 05:20:17;;;;;;;20.25;14.30;;;6.50;99.90;;;;;;4994050;28;20019;-54
2023/03/30 05:22:44;;;;;;;30.58;17.73;;;6.60;99.90;;;;;;4994112;28;20026;-56
2023/03/30 05:25:09;;;;;;;32.40;16.58;;;6.70;99.90;;;;;;4993890;28;20033;-58
2023/03/30 05:27:35;;;;;;;25.70;16.30;;;6.70;99.90;;;;;;4993642;28;20050;-58
2023/03/30 05:30:02;;;;;;;22.73;15.50;;;6.80;99.90;;;;;;4993136;28;20488;-53
2023/03/30 05:32:28;;;;;;;26.50;14.80;;;6.90;99.90;;;;;;4993713;28;20027;-54
2023/03/30 05:34:54;;;;;;;22.38;12.30;;;6.90;99.90;;;;;;4992151;28;20109;-56
2023/03/30 05:37:20;;;;;;;20.33;8.95;;;7.00;99.90;;;;;;4994214;28;20433;-51
2023/03/30 05:39:47;;;;;;;24.35;10.23;;;7.00;99.90;;;;;;4992477;28;20022;-55
2023/03/30 05:42:12;;;;;;;18.60;10.88;;;7.20;99.90;;;;;;4992000;28;20037;-55
2023/03/30 05:44:38;;;;;;;15.77;8.30;;;7.30;99.90;;;;;;4993583;28;20026;-52
2023/03/30 05:47:04;;;;;;;8.82;4.88;;;7.50;99.90;;;;;;4992969;28;20045;-58
2023/03/30 05:49:30;;;;;;;18.25;5.68;;;7.80;99.90;;;;;;4993294;28;20080;-57
2023/03/30 05:51:56;;;;;;;12.73;6.60;;;8.00;99.90;;;;;;4993040;28;20045;-57
2023/03/30 05:54:21;;;;;;;162.18;50.75;;;8.10;99.90;;;;;;4993079;28;20597;-57
2023/03/30 05:56:47;;;;;;;424.75;125.13;;;8.30;99.90;;;;;;4991540;28;20056;-56
2023/03/30 05:59:13;;;;;;;38.10;12.82;;;8.50;99.90;;;;;;4993298;28;20029;-56
2023/03/30 06:01:39;;;;;;;93.72;29.95;;;8.70;99.90;;;;;;4992901;28;20105;-53
2023/03/30 06:04:05;;;;;;;40.80;12.05;;;8.90;99.90;;;;;;4992308;28;20516;-52
2023/03/30 06:06:31;;;;;;;30.90;11.30;;;9.10;99.90;;;;;;4992861;28;20026;-56
2023/03/30 06:08:58;;;;;;;21.88;8.35;;;9.20;99.90;;;;;;4992927;28;20026;-56
2023/03/30 06:11:23;;;;;;;20.42;9.75;;;9.30;99.90;;;;;;4992858;28;20041;-54
2023/03/30 06:13:49;;;;;;;19.98;6.07;;;9.50;99.90;;;;;;4992850;28;20031;-55
2023/03/30 06:16:15;;;;;;;18.15;6.00;;;9.60;99.90;;;;;;4990883;28;20100;-55
2023/03/30 06:18:40;;;;;;;17.13;6.18;;;9.60;99.90;;;;;;4993003;28;20026;-58
2023/03/30 06:21:07;;;;;;;21.55;4.82;;;9.60;99.90;;;;;;4992813;28;20533;-56
2023/03/30 06:23:39;;;;;;;19.42;3.60;;;9.70;99.90;;;;;;4992816;28;20018;-59
2023/03/30 06:26:30;;;;;;;15.05;5.55;;;9.80;99.90;;;;;;4992669;28;20034;-53
2023/03/30 06:28:55;;;;;;;20.25;4.60;;;9.90;99.90;;;;;;4992554;28;20050;-56
2023/03/30 06:31:21;;;;;;;17.38;5.22;;;10.00;99.90;;;;;;4992585;28;20034;-53
2023/03/30 06:33:48;;;;;;;23.52;6.10;;;10.10;99.90;;;;;;4992326;28;20050;-54
2023/03/30 06:36:14;;;;;;;20.48;6.97;;;10.20;99.90;;;;;;4992240;28;20055;-57
2023/03/30 06:38:42;;;;;;;16.80;5.10;;;10.20;99.90;;;;;;4992254;28;20026;-55
2023/03/30 06:41:10;;;;;;;23.50;7.82;;;10.20;99.90;;;;;;4991868;28;20026;-57
2023/03/30 06:43:37;;;;;;;21.98;6.13;;;10.20;99.90;;;;;;4992328;28;20105;-52
2023/03/30 06:46:03;;;;;;;17.30;6.28;;;10.10;99.90;;;;;;4992016;28;20532;-57
2023/03/30 06:48:29;;;;;;;20.50;5.07;;;10.20;99.90;;;;;;4992355;28;20053;-56
2023/03/30 06:50:55;;;;;;;18.30;5.22;;;10.20;99.90;;;;;;4992064;28;20086;-58
2023/03/30 06:53:22;;;;;;;18.40;5.07;;;10.40;99.90;;;;;;4992244;28;20474;-55
2023/03/30 06:55:55;;;;;;;19.85;6.72;;;10.50;99.90;;;;;;4992205;28;20061;-58
2023/03/30 06:58:22;;;;;;;15.65;4.40;;;10.50;99.90;;;;;;4992539;28;20473;-56
2023/03/30 07:00:47;;;;;;;23.35;4.43;;;10.50;99.90;;;;;;4992221;28;20034;-58
2023/03/30 07:03:17;;;;;;;22.42;5.78;;;10.50;99.90;;;;;;4992315;28;20080;-55
2023/03/30 07:05:47;;;;;;;30.98;6.88;;;10.50;99.90;;;;;;4992312;28;20077;-56
2023/03/30 07:08:13;;;;;;;22.52;5.00;;;10.50;99.90;;;;;;4991798;28;20052;-56
2023/03/30 07:10:39;;;;;;;20.40;4.10;;;10.40;99.90;;;;;;4991146;28;20031;-58
2023/03/30 07:13:06;;;;;;;20.88;4.78;;;10.40;99.90;;;;;;4991811;28;20529;-55
2023/03/30 07:15:32;;;;;;;18.23;5.47;;;10.40;99.90;;;;;;4992032;28;20030;-54
2023/03/30 07:17:58;;;;;;;18.17;4.50;;;10.30;99.90;;;;;;4992200;28;20026;-56
2023/03/30 07:20:23;;;;;;;18.17;5.07;;;10.40;99.90;;;;;;4992077;28;20018;-55
2023/03/30 07:22:49;;;;;;;17.23;4.22;;;10.40;99.90;;;;;;4991466;28;20069;-55
2023/03/30 07:25:15;;;;;;;21.05;5.55;;;10.50;99.90;;;;;;4991725;28;20081;-57
2023/03/30 07:27:41;;;;;;;22.95;5.38;;;10.50;99.90;;;;;;4992741;28;20042;-57
2023/03/30 07:30:09;;;;;;;26.30;6.32;;;10.40;99.90;;;;;;4995693;28;20114;-58
2023/03/30 07:32:35;;;;;;;17.83;5.03;;;10.40;99.90;;;;;;4995894;28;20030;-56
2023/03/30 07:35:01;;;;;;;21.95;7.05;;;10.40;99.90;;;;;;4995856;28;20027;-52
2023/03/30 07:37:27;;;;;;;30.15;7.28;;;10.50;99.90;;;;;;4995437;28;20408;-55
2023/03/30 07:39:53;;;;;;;24.25;5.28;;;10.40;99.90;;;;;;4995476;28;20018;-58
2023/03/30 07:42:19;;;;;;;16.38;4.68;;;10.50;99.90;;;;;;4995535;28;20045;-56
2023/03/30 07:44:45;;;;;;;18.98;5.65;;;10.50;99.90;;;;;;4995346;28;20022;-57
2023/03/30 07:47:11;;;;;;;52.65;16.33;;;10.50;99.90;;;;;;4995207;28;20041;-59
2023/03/30 07:49:37;;;;;;;24.42;5.82;;;10.70;99.90;;;;;;4994450;28;20031;-56
2023/03/30 07:52:02;;;;;;;17.25;5.22;;;10.70;99.90;;;;;;4995086;28;20506;-57
2023/03/30 07:54:28;;;;;;;16.02;4.97;;;10.70;99.90;;;;;;4995248;28;20106;-56
2023/03/30 07:56:54;;;;;;;16.25;5.35;;;10.70;99.90;;;;;;4995341;28;20030;-55
2023/03/30 07:59:20;;;;;;;22.55;4.88;;;10.70;99.90;;;;;;4995550;28;20035;-57
2023/03/30 08:01:49;;;;;;;15.05;5.78;;;10.70;99.90;;;;;;4995240;28;20018;-59
2023/03/30 08:04:15;;;;;;;20.73;5.55;;;10.70;99.90;;;;;;4995474;28;20022;-59
2023/03/30 08:06:41;;;;;;;20.58;6.60;;;10.60;99.90;;;;;;4995314;28;20100;-58
2023/03/30 08:09:07;;;;;;;18.77;6.95;;;10.70;99.90;;;;;;4995248;28;20022;-53
2023/03/30 08:11:34;;;;;;;26.98;13.10;;;10.70;99.90;;;;;;4995468;28;20645;-54
2023/03/30 08:14:01;;;;;;;29.13;9.38;;;10.70;99.90;;;;;;4994732;28;20141;-55
2023/03/30 08:16:26;;;;;;;31.95;6.50;;;10.70;99.90;;;;;;4994239;28;20034;-58
2023/03/30 08:18:53;;;;;;;24.55;6.80;;;10.80;99.90;;;;;;4994890;28;20033;-56
2023/03/30 08:21:20;;;;;;;19.90;8.80;;;10.80;99.90;;;;;;4994987;28;20023;-52
2023/03/30 08:23:46;;;;;;;28.77;6.70;;;11.00;99.90;;;;;;4994977;28;20030;-55
2023/03/30 08:26:12;;;;;;;18.00;5.47;;;11.20;99.90;;;;;;4995139;28;20085;-55
2023/03/30 08:28:38;;;;;;;17.15;5.10;;;11.30;99.90;;;;;;4995006;28;20046;-58
2023/03/30 08:31:09;;;;;;;22.70;6.05;;;11.40;99.90;;;;;;4994738;28;20062;-59
2023/03/30 08:33:35;;;;;;;22.13;5.53;;;11.50;99.90;;;;;;4993683;28;20116;-58
2023/03/30 08:36:02;;;;;;;17.15;5.40;;;11.50;99.90;;;;;;4992757;28;20117;-57
2023/03/30 08:38:28;;;;;;;14.90;6.05;;;11.40;99.90;;;;;;4994053;28;20387;-57
2023/03/30 08:40:54;;;;;;;22.83;4.95;;;11.50;99.90;;;;;;4993448;28;20279;-58
2023/03/30 08:43:41;;;;;;;14.57;4.32;;;11.60;99.90;;;;;;4994309;28;20027;-56
2023/03/30 08:46:13;;;;;;;38.03;12.35;;;11.60;99.90;;;;;;4993669;28;20057;-59
2023/03/30 08:48:41;;;;;;;47.65;17.02;;;11.60;99.90;;;;;;4994146;28;20093;-57
2023/03/30 08:51:23;;;;;;;24.63;5.35;;;11.70;99.90;;;;;;4993005;28;20034;-58
2023/03/30 08:54:02;;;;;;;14.88;4.22;;;11.80;99.90;;;;;;5008371;28;20038;-54
2023/03/30 08:56:42;;;;;;;11.00;3.65;;;12.00;99.90;;;;;;5012811;28;20040;-57
2023/03/30 08:59:50;;;;;;;20.63;4.38;;;12.20;99.90;;;;;;5012957;28;20049;-58
2023/03/30 09:02:32;;;;;;;15.13;4.45;;;12.20;99.90;;;;;;5011989;28;20026;-58
2023/03/30 09:05:00;;;;;;;19.92;4.60;;;12.30;99.90;;;;;;5013388;28;20033;-59
2023/03/30 09:07:40;;;;;;;14.00;4.63;;;12.30;99.90;;;;;;5013452;28;20038;-56
2023/03/30 09:10:15;;;;;;;16.92;5.35;;;12.60;99.90;;;;;;5013036;28;20040;-58
2023/03/30 09:12:47;;;;;;;22.17;5.93;;;12.70;99.90;;;;;;5013478;28;20426;-57
2023/03/30 09:15:21;;;;;;;17.00;5.10;;;12.90;99.90;;;;;;5013336;28;20022;-58
2023/03/30 09:17:46;;;;;;;;;;;13.30;99.90;;;;;;5013422;28;20061;-55
2023/03/30 09:20:22;;;;;;;22.83;9.48;;;13.70;99.90;;;;;;5013187;28;19905;-57
2023/03/30 09:22:50;;;;;;;24.83;9.13;;;14.00;99.90;;;;;;5013144;28;20407;-56
2023/03/30 09:25:26;;;;;;;24.85;4.90;;;14.40;99.90;;;;;;5012179;28;20153;-58
2023/03/30 09:28:17;;;;;;;14.57;5.88;;;14.50;99.90;;;;;;5012823;28;20531;-54
2023/03/30 09:30:47;;;;;;;25.23;5.55;;;14.90;99.90;;;;;;5013296;28;20030;-59
2023/03/30 09:33:39;;;;;;;16.15;4.07;;;15.00;99.90;;;;;;5003879;28;20030;-57
2023/03/30 09:36:11;;;;;;;14.48;3.78;;;14.90;99.90;;;;;;4982747;28;20038;-59
2023/03/30 09:38:40;;;;;;;25.75;5.93;;;14.80;99.90;;;;;;4992967;28;20034;-59
2023/03/30 09:41:41;;;;;;;22.00;5.70;;;14.90;99.90;;;;;;4993160;28;20069;-57
2023/03/30 09:44:17;;;;;;;21.40;4.63;;;15.00;99.90;;;;;;4999052;28;20077;-56
2023/03/30 09:46:43;;;;;;;14.27;4.07;;;15.10;99.90;;;;;;5010678;28;20668;-58
2023/03/30 09:49:15;;;;;;;15.25;5.30;;;15.20;99.90;;;;;;5012368;28;20092;-59
2023/03/30 09:52:05;;;;;;;18.17;5.43;;;15.30;99.90;;;;;;5011485;28;20037;-57
2023/03/30 09:54:39;;;;;;;14.38;3.30;;;15.50;99.90;;;;;;5012498;28;20269;-59
2023/03/30 09:57:20;;;;;;;17.67;3.78;;;15.30;99.90;;;;;;5012375;28;20037;-58
2023/03/30 09:59:46;;;;;;;13.15;3.15;;;15.10;99.90;;;;;;5012587;28;20385;-58
2023/03/30 10:02:11;;;;;;;9.43;4.00;;;14.90;99.90;;;;;;5012522;28;20045;-59
2023/03/30 10:04:52;;;;;;;12.13;3.42;;;14.90;99.90;;;;;;5010884;28;20117;-57
2023/03/30 10:07:27;;;;;;;10.15;3.70;;;15.00;99.90;;;;;;5012382;28;20056;-58
2023/03/30 10:09:53;;;;;;;9.98;3.10;;;15.00;99.90;;;;;;5012133;28;20033;-58
2023/03/30 10:12:27;;;;;;;17.88;5.57;;;15.20;99.90;;;;;;5068017;28;20387;-60
2023/03/30 10:15:00;;;;;;;9.75;4.05;;;15.30;99.90;;;;;;5055941;28;20033;-54
2023/03/30 10:17:26;;;;;;;18.45;5.55;;;15.10;99.90;;;;;;5038634;28;20018;-59
2023/03/30 10:20:12;;;;;;;11.43;4.85;;;15.00;99.90;;;;;;5039237;28;20034;-57
2023/03/30 10:23:07;;;;;;;19.00;4.15;;;15.00;99.90;;;;;;5039337;28;20037;-57
2023/03/30 10:25:33;;;;;;;11.65;3.78;;;14.90;99.90;;;;;;5041430;28;20438;-57
2023/03/30 10:28:01;;;;;;;13.57;4.15;;;14.90;99.90;;;;;;5042559;28;20041;-60
2023/03/30 10:30:28;;;;;;;12.88;4.13;;;14.90;99.90;;;;;;5037325;28;20029;-57
2023/03/30 10:32:57;;;;;;;11.68;4.22;;;14.80;99.90;;;;;;5038000;28;20026;-57
2023/03/30 10:35:26;;;;;;;19.00;4.28;;;14.60;99.90;;;;;;5037502;28;20026;-57
2023/03/30 10:37:55;;;;;;;11.70;3.80;;;14.60;99.90;;;;;;5036694;28;20033;-57
2023/03/30 10:40:26;;;;;;;11.65;3.78;;;14.50;99.90;;;;;;5036889;28;20037;-57
2023/03/30 10:42:55;;;;;;;11.10;3.03;;;14.50;99.90;;;;;;5036303;28;20248;-57
2023/03/30 10:45:30;;;;;;;11.75;3.85;;;14.50;99.90;;;;;;5054293;28;20031;-58
2023/03/30 10:48:15;;;;;;;9.75;3.13;;;14.50;99.90;;;;;;5036358;28;20037;-59
2023/03/30 10:51:13;;;;;;;11.38;4.05;;;14.40;99.90;;;;;;5037176;28;20029;-56
2023/03/30 10:54:00;;;;;;;15.55;3.63;;;14.40;99.90;;;;;;5048969;28;20037;-58
2023/03/30 10:56:41;;;;;;;10.85;3.85;;;14.60;99.90;;;;;;5040070;28;20021;-55
2023/03/30 10:59:13;;;;;;;13.80;3.35;;;14.80;99.90;;;;;;5035321;28;20044;-54
2023/03/30 11:02:21;;;;;;;15.93;3.47;;;15.20;99.90;;;;;;5038727;28;20040;-57
2023/03/30 11:04:58;;;;;;;13.82;4.50;;;15.40;99.90;;;;;;5036989;28;20025;-58
2023/03/30 11:07:42;;;;;;;10.77;3.58;;;15.50;99.90;;;;;;5037102;28;20037;-57
2023/03/30 11:10:20;;;;;;;14.38;3.85;;;15.90;99.90;;;;;;5044843;28;20029;-54
2023/03/30 11:12:53;;;;;;;17.65;4.43;;;16.20;99.90;;;;;;5035390;28;20139;-57
2023/03/30 11:15:38;;;;;;;9.10;2.92;;;15.90;99.90;;;;;;5035417;28;20113;-59
2023/03/30 11:18:14;;;;;;;8.70;3.25;;;16.10;99.90;;;;;;5035141;28;20481;-56
2023/03/30 11:20:46;;;;;;;16.48;3.67;;;16.10;99.90;;;;;;5035573;28;20057;-56
2023/03/30 11:23:38;;;;;;;19.02;5.28;;;16.10;99.90;;;;;;5027304;28;20030;-57
2023/03/30 11:26:07;;;;;;;19.85;6.05;;;16.10;99.90;;;;;;5022787;28;20044;-58
2023/03/30 11:28:47;;;;;;;13.00;3.50;;;16.00;99.90;;;;;;5023097;28;20457;-59
2023/03/30 11:31:42;;;;;;;18.00;5.43;;;15.70;99.90;;;;;;5021827;28;21177;-59
2023/03/30 11:34:10;;;;;;;9.77;4.78;;;15.70;99.90;;;;;;5023109;28;20140;-58
2023/03/30 11:36:47;;;;;;;21.90;7.40;;;15.60;99.90;;;;;;5023286;28;20025;-59
2023/03/30 11:39:15;;;;;;;19.70;5.68;;;15.70;99.90;;;;;;5023915;28;20116;-59
2023/03/30 11:41:43;;;;;;;12.73;5.25;;;15.70;99.90;;;;;;5023518;28;20068;-59
2023/03/30 11:44:10;;;;;;;17.13;3.95;;;15.80;99.90;;;;;;5021903;28;20033;-57
2023/03/30 11:46:47;;;;;;;30.38;7.43;;;16.20;99.90;;;;;;5023709;28;20048;-59
2023/03/30 11:49:23;;;;;;;30.70;15.98;;;16.30;99.90;;;;;;5023548;28;20035;-57
2023/03/30 11:51:56;;;;;;;17.02;3.80;;;16.50;99.90;;;;;;5024850;28;20500;-58
2023/03/30 11:54:46;;;;;;;17.00;4.50;;;17.00;99.90;;;;;;5023225;28;20434;-58
2023/03/30 11:57:33;;;;;;;19.23;4.43;;;16.90;99.90;;;;;;5024019;28;20048;-57
2023/03/30 12:00:22;;;;;;;21.08;4.28;;;17.00;99.90;;;;;;5022738;28;20500;-59
2023/03/30 12:03:04;;;;;;;21.60;5.47;;;16.80;99.90;;;;;;5022007;28;20083;-57
2023/03/30 12:05:41;;;;;;;22.00;5.97;;;16.50;99.90;;;;;;5024589;28;20061;-58
2023/03/30 12:08:31;;;;;;;14.05;4.22;;;16.40;99.90;;;;;;5023623;28;20111;-56
2023/03/30 12:11:36;;;;;;;12.57;4.15;;;16.40;99.90;;;;;;5020609;28;20084;-58
2023/03/30 12:14:11;;;;;;;39.75;15.23;;;16.10;99.90;;;;;;5024499;28;20036;-66
2023/03/30 12:16:43;;;;;;;16.35;4.57;;;16.10;99.90;;;;;;5032898;28;20021;-57
2023/03/30 12:19:23;;;;;;;23.15;8.55;;;16.10;99.90;;;;;;5047111;28;20032;-58
2023/03/30 12:21:52;;;;;;;23.15;10.18;;;16.10;99.90;;;;;;5053286;28;20116;-58
2023/03/30 12:24:41;;;;;;;33.05;12.35;;;16.20;99.90;;;;;;5051463;28;20056;-56
2023/03/30 12:27:09;;;;;;;19.23;4.70;;;16.10;99.90;;;;;;5052132;28;20029;-55
2023/03/30 12:29:48;;;;;;;10.77;5.13;;;16.20;99.90;;;;;;5050838;28;20027;-54
2023/03/30 12:32:24;;;;;;;19.63;4.40;;;16.20;99.90;;;;;;5035495;28;20033;-56
2023/03/30 12:34:50;;;;;;;27.58;11.75;;;16.10;99.90;;;;;;5041861;28;20426;-58
2023/03/30 12:37:34;;;;;;;20.33;5.20;;;16.10;99.90;;;;;;5044190;28;20033;-58
2023/03/30 12:40:09;;;;;;;17.77;4.40;;;16.00;99.90;;;;;;5033499;28;20029;-57
2023/03/30 12:42:53;;;;;;;21.95;5.00;;;16.10;99.90;;;;;;5032632;28;20028;-56
2023/03/30 12:45:21;;;;;;;;;;;16.00;99.90;;;;;;5033175;28;20021;-53
2023/03/30 12:48:20;;;;;;;16.35;4.13;;;16.00;99.90;;;;;;5040614;28;20360;-56
2023/03/30 12:51:08;;;;;;;37.42;4.82;;;15.90;99.90;;;;;;5052379;28;20037;-55
2023/03/30 12:53:58;;;;;;;13.05;4.22;;;16.00;99.90;;;;;;5052630;28;20025;-57
2023/03/30 12:56:57;;;;;;;16.67;3.70;;;15.80;99.90;;;;;;5052478;28;20103;-52
2023/03/30 12:59:45;;;;;;;14.75;3.22;;;15.80;99.90;;;;;;5047660;28;20021;-55
2023/03/30 13:02:53;;;;;;;22.02;3.75;;;15.70;99.90;;;;;;5033528;28;20033;-55
2023/03/30 13:05:32;;;;;;;23.63;4.10;;;15.80;99.90;;;;;;5039660;28;20159;-57
2023/03/30 13:08:08;;;;;;;27.60;5.63;;;15.60;99.90;;;;;;5043032;28;20551;-57